00:06
Airports
History
Links
Donate
Help keep this website running!
PayPal
Bitcoin
This page is community maintained. The information is intended for PC simulator navigation or reference.
Always use approved charts for navigation.
CYDF
DEER LAKE
DEER LAKE (CYDF)
Deer Lake, Newfoundland and Labrador, Canada
(U)
Lat/Lng:49° 12' 39.6" N / 57° 23' 28.49" W
49.211 / -57.391246
Elevation:72'ft / 22mMSL
ID / ICAO:CYDF
Runways:1
Longest:07-25
Asphalt 1,819m / 5,967ft
METAR23:00 GMT 2017-10-16
Altimeter: 29.77
Visibility: 15.0 statute miles
Wind: 3 knots (from 310°)
Temp: 4°c / 39°f
Humidity: 93.2%

METAR: CYDF 162300Z 31003KT 300V090 15SM FEW010 FEW030 SCT045 SCT060 04/03 A2977 RMK SF1SC1SC1SC1 SLP082

(Powered by phpweather)
Airport Radio Frequencies
MF: 122.2
Nearby VORs <50NM
Nearby NDBs
Runway 07 / 25
Dimensions:1818.6 x 46m 5967' x 151'ft
Surface:Asphalt
Edge Lights:High intensity
Runway 07 [A]Runway 25 [B]
Heading:046°TH 226°TH
Lat:
Lng:
49° 12' 19.2"N
57° 24' 1.19"W
49° 12' 60"N
57° 22' 55.78"W
ALS:MALSSSALR
User Notes and Comments
49° 12' 39.6" N / 57° 23' 28.49" W
Distance To
Airport ID:
Nearby Airports
(U) STEPHENVILLE 70.1 NM
CYJT ( WX ) SW 228°
(U) EXPLOITS VALLEY BOTWOOD 88.5 NM
CCP2 E 96°
(C) GANDER INTL 129.1 NM
CYQX ( WX ) E 98°
(U) CHEVERY 132.5 NM
CYHR NW 310°
(U) ST ANDREWS CODROY VALLEY 132.7 NM
CDA5 SW 221°
(U) FOGO 145.0 NM
CDY3 ENE 77°
(U) ST AUGUSTIN 149.1 NM
CYIF NNW 337°
VFR Chart
Flight Planning at SkyVector.com